SE-0038 weather

CLOSED Stalons flygfält
Stalon, Västerbottens län, Sweden

Public forecast

Using degrees Celsius for public forecast. Weather courtesy of forecast.io.

METAR (pilot weather report)

Closest report is Vilhelmina Airport, 34.1 nm (63.1 km) SE. Retrieved 2019/09/22 17:20 UTC (0 seconds ago):

ESNV 221720Z 00000KT CAVOK M00/M02 Q1022

TAF (pilot weather forecast)

Forecast is more than 12 hours old.

Closest forecast is Hemavan Airport, 54.6 nm (101.2 km) NNW. Retrieved 2009/10/12 22:40 UTC (10 years ago):

TAF TAF LTCC 122240Z 13 SASN33 ESWI 130020 RRA METAR ESUT 130020Z AUTO 00000KT 9999NDV NCD M08/M10 Q1022